sensor_id;sensor_type;location;lat;lon;timestamp;pressure;altitude;pressure_sealevel;temperature;humidity
41945;BME280;63122;52.424;13.458;2023-02-23T00:00:15;100785.34;;;5.76;100.00
41945;BME280;63122;52.424;13.458;2023-02-23T00:02:32;100775.47;;;5.80;100.00
41945;BME280;63122;52.424;13.458;2023-02-23T00:04:28;100784.28;;;5.79;100.00
41945;BME280;63122;52.424;13.458;2023-02-23T00:06:24;100785.81;;;5.81;100.00
41945;BME280;63122;52.424;13.458;2023-02-23T00:08:19;100788.34;;;5.83;100.00
41945;BME280;63122;52.424;13.458;2023-02-23T00:10:15;100781.41;;;5.70;100.00
41945;BME280;63122;52.424;13.458;2023-02-23T00:12:10;100781.91;;;5.75;100.00
41945;BME280;63122;52.424;13.458;2023-02-23T00:14:11;100780.59;;;5.70;100.00
41945;BME280;63122;52.424;13.458;2023-02-23T00:16:08;100776.06;;;5.72;100.00
41945;BME280;63122;52.424;13.458;2023-02-23T00:18:05;100772.25;;;5.65;100.00
41945;BME280;63122;52.424;13.458;2023-02-23T00:20:00;100778.91;;;5.69;100.00
41945;BME280;63122;52.424;13.458;2023-02-23T00:21:58;100776.28;;;5.69;100.00
41945;BME280;63122;52.424;13.458;2023-02-23T00:23:55;100766.88;;;5.66;100.00
41945;BME280;63122;52.424;13.458;2023-02-23T00:25:51;100771.31;;;5.66;100.00
41945;BME280;63122;52.424;13.458;2023-02-23T00:28:19;100765.13;;;5.67;100.00
41945;BME280;63122;52.424;13.458;2023-02-23T00:30:18;100762.25;;;5.70;100.00
41945;BME280;63122;52.424;13.458;2023-02-23T00:32:13;100757.25;;;5.67;100.00
41945;BME280;63122;52.424;13.458;2023-02-23T00:34:12;100763.69;;;5.62;100.00
41945;BME280;63122;52.424;13.458;2023-02-23T00:36:09;100759.28;;;5.63;100.00
41945;BME280;63122;52.424;13.458;2023-02-23T00:38:05;100756.78;;;5.61;100.00
41945;BME280;63122;52.424;13.458;2023-02-23T00:40:00;100760.94;;;5.64;100.00
41945;BME280;63122;52.424;13.458;2023-02-23T00:41:57;100753.66;;;5.56;100.00
41945;BME280;63122;52.424;13.458;2023-02-23T00:43:56;100765.78;;;5.57;100.00
41945;BME280;63122;52.424;13.458;2023-02-23T00:45:56;100761.50;;;5.56;100.00
41945;BME280;63122;52.424;13.458;2023-02-23T00:47:51;100762.72;;;5.64;100.00
41945;BME280;63122;52.424;13.458;2023-02-23T00:49:49;100765.78;;;5.57;100.00
41945;BME280;63122;52.424;13.458;2023-02-23T00:51:45;100761.50;;;5.56;100.00
41945;BME280;63122;52.424;13.458;2023-02-23T00:53:41;100760.47;;;5.59;100.00
41945;BME280;63122;52.424;13.458;2023-02-23T00:55:39;100756.50;;;5.53;100.00
41945;BME280;63122;52.424;13.458;2023-02-23T00:57:35;100761.03;;;5.51;100.00
41945;BME280;63122;52.424;13.458;2023-02-23T00:59:30;100766.84;;;5.43;100.00
41945;BME280;63122;52.424;13.458;2023-02-23T01:01:28;100758.53;;;5.50;100.00
41945;BME280;63122;52.424;13.458;2023-02-23T01:03:24;100754.25;;;5.48;100.00
41945;BME280;63122;52.424;13.458;2023-02-23T01:05:18;100757.84;;;5.47;100.00
41945;BME280;63122;52.424;13.458;2023-02-23T01:07:14;100755.44;;;5.44;100.00
41945;BME280;63122;52.424;13.458;2023-02-23T01:09:11;100756.03;;;5.48;100.00
41945;BME280;63122;52.424;13.458;2023-02-23T01:11:15;100750.69;;;5.50;100.00
41945;BME280;63122;52.424;13.458;2023-02-23T01:13:12;100745.91;;;5.43;100.00
41945;BME280;63122;52.424;13.458;2023-02-23T01:15:09;100757.84;;;5.47;100.00
41945;BME280;63122;52.424;13.458;2023-02-23T01:17:07;100749.84;;;5.49;100.00
41945;BME280;63122;52.424;13.458;2023-02-23T01:19:03;100749.03;;;5.48;100.00
41945;BME280;63122;52.424;13.458;2023-02-23T01:20:58;100750.78;;;5.48;100.00
41945;BME280;63122;52.424;13.458;2023-02-23T01:22:54;100753.19;;;5.51;100.00
41945;BME280;63122;52.424;13.458;2023-02-23T01:24:49;100752.59;;;5.47;100.00
41945;BME280;63122;52.424;13.458;2023-02-23T01:26:45;100767.44;;;5.47;100.00
41945;BME280;63122;52.424;13.458;2023-02-23T01:28:40;100757.44;;;5.41;100.00
41945;BME280;63122;52.424;13.458;2023-02-23T01:30:35;100758.28;;;5.41;100.00
41945;BME280;63122;52.424;13.458;2023-02-23T01:32:34;100753.75;;;5.43;100.00
41945;BME280;63122;52.424;13.458;2023-02-23T01:34:30;100751.50;;;5.39;100.00
41945;BME280;63122;52.424;13.458;2023-02-23T01:36:26;100742.38;;;5.44;100.00
41945;BME280;63122;52.424;13.458;2023-02-23T01:38:21;100739.63;;;5.46;100.00
41945;BME280;63122;52.424;13.458;2023-02-23T01:40:18;100734.72;;;5.41;100.00
41945;BME280;63122;52.424;13.458;2023-02-23T01:42:19;100741.50;;;5.32;100.00
41945;BME280;63122;52.424;13.458;2023-02-23T01:46:44;100736.84;;;5.36;100.00
41945;BME280;63122;52.424;13.458;2023-02-23T01:48:45;100735.91;;;5.37;100.00
41945;BME280;63122;52.424;13.458;2023-02-23T01:50:48;100736.38;;;5.31;100.00
41945;BME280;63122;52.424;13.458;2023-02-23T01:52:46;100732.94;;;5.30;100.00
41945;BME280;63122;52.424;13.458;2023-02-23T01:54:49;100729.38;;;5.31;100.00
41945;BME280;63122;52.424;13.458;2023-02-23T01:56:48;100723.53;;;5.28;100.00
41945;BME280;63122;52.424;13.458;2023-02-23T01:58:51;100722.47;;;5.30;100.00
41945;BME280;63122;52.424;13.458;2023-02-23T02:00:49;100728.44;;;5.32;100.00
41945;BME280;63122;52.424;13.458;2023-02-23T02:02:45;100719.47;;;5.24;100.00
41945;BME280;63122;52.424;13.458;2023-02-23T02:04:42;100717.25;;;5.30;100.00
41945;BME280;63122;52.424;13.458;2023-02-23T02:06:39;100714.13;;;5.25;100.00
41945;BME280;63122;52.424;13.458;2023-02-23T02:08:36;100722.44;;;5.19;100.00
41945;BME280;63122;52.424;13.458;2023-02-23T02:10:37;100723.38;;;5.18;100.00
41945;BME280;63122;52.424;13.458;2023-02-23T02:12:37;100716.88;;;5.24;100.00
41945;BME280;63122;52.424;13.458;2023-02-23T02:14:34;100710.22;;;5.19;100.00
41945;BME280;63122;52.424;13.458;2023-02-23T02:16:42;100711.88;;;5.21;100.00
41945;BME280;63122;52.424;13.458;2023-02-23T02:18:56;100703.31;;;5.18;100.00
41945;BME280;63122;52.424;13.458;2023-02-23T02:21:33;100704.38;;;5.16;100.00
41945;BME280;63122;52.424;13.458;2023-02-23T02:24:11;100703.66;;;5.14;100.00
41945;BME280;63122;52.424;13.458;2023-02-23T02:26:18;100697.69;;;5.12;100.00
41945;BME280;63122;52.424;13.458;2023-02-23T02:30:50;100706.81;;;5.06;100.00
41945;BME280;63122;52.424;13.458;2023-02-23T02:35:25;100696.94;;;4.98;100.00
41945;BME280;63122;52.424;13.458;2023-02-23T02:37:37;100691.28;;;5.04;100.00
41945;BME280;63122;52.424;13.458;2023-02-23T02:39:41;100693.13;;;5.02;100.00
41945;BME280;63122;52.424;13.458;2023-02-23T02:41:46;100692.56;;;4.99;100.00
41945;BME280;63122;52.424;13.458;2023-02-23T02:43:48;100689.94;;;4.99;100.00
41945;BME280;63122;52.424;13.458;2023-02-23T02:45:51;100691.84;;;4.97;100.00
41945;BME280;63122;52.424;13.458;2023-02-23T02:47:55;100685.03;;;4.94;100.00
41945;BME280;63122;52.424;13.458;2023-02-23T02:49:59;100691.00;;;4.96;100.00
41945;BME280;63122;52.424;13.458;2023-02-23T02:52:00;100686.13;;;4.92;100.00
41945;BME280;63122;52.424;13.458;2023-02-23T02:54:02;100688.84;;;4.90;100.00
41945;BME280;63122;52.424;13.458;2023-02-23T02:56:05;100686.94;;;4.92;100.00
41945;BME280;63122;52.424;13.458;2023-02-23T02:58:10;100682.78;;;4.89;100.00
41945;BME280;63122;52.424;13.458;2023-02-23T03:00:30;100688.50;;;4.95;100.00
41945;BME280;63122;52.424;13.458;2023-02-23T03:02:45;100679.31;;;4.89;100.00
41945;BME280;63122;52.424;13.458;2023-02-23T03:04:53;100679.81;;;4.94;100.00
41945;BME280;63122;52.424;13.458;2023-02-23T03:07:06;100676.38;;;4.94;100.00
41945;BME280;63122;52.424;13.458;2023-02-23T03:09:29;100674.81;;;4.91;100.00
41945;BME280;63122;52.424;13.458;2023-02-23T03:11:52;100679.72;;;4.96;100.00
41945;BME280;63122;52.424;13.458;2023-02-23T03:14:18;100679.72;;;4.96;100.00
41945;BME280;63122;52.424;13.458;2023-02-23T03:16:32;100673.16;;;4.90;100.00
41945;BME280;63122;52.424;13.458;2023-02-23T03:18:54;100673.16;;;4.90;100.00
41945;BME280;63122;52.424;13.458;2023-02-23T03:21:12;100670.63;;;4.88;100.00
41945;BME280;63122;52.424;13.458;2023-02-23T03:23:25;100662.06;;;4.86;100.00
41945;BME280;63122;52.424;13.458;2023-02-23T03:25:47;100672.53;;;4.86;100.00
41945;BME280;63122;52.424;13.458;2023-02-23T03:28:03;100677.50;;;4.78;100.00
41945;BME280;63122;52.424;13.458;2023-02-23T03:30:20;100662.91;;;4.75;100.00
41945;BME280;63122;52.424;13.458;2023-02-23T03:32:34;100675.97;;;4.75;100.00
41945;BME280;63122;52.424;13.458;2023-02-23T03:34:46;100666.34;;;4.76;100.00
41945;BME280;63122;52.424;13.458;2023-02-23T03:37:01;100663.72;;;4.76;100.00
41945;BME280;63122;52.424;13.458;2023-02-23T03:39:16;100666.34;;;4.76;100.00
41945;BME280;63122;52.424;13.458;2023-02-23T03:41:30;100662.16;;;4.73;100.00
41945;BME280;63122;52.424;13.458;2023-02-23T03:43:44;100659.53;;;4.73;100.00
41945;BME280;63122;52.424;13.458;2023-02-23T03:45:54;100663.16;;;4.59;100.00
41945;BME280;63122;52.424;13.458;2023-02-23T03:48:06;100657.47;;;4.54;100.00
41945;BME280;63122;52.424;13.458;2023-02-23T03:50:22;100658.00;;;4.46;100.00
41945;BME280;63122;52.424;13.458;2023-02-23T03:52:35;100657.41;;;4.43;100.00
41945;BME280;63122;52.424;13.458;2023-02-23T03:54:50;100652.28;;;4.41;100.00
41945;BME280;63122;52.424;13.458;2023-02-23T03:57:04;100653.31;;;4.52;100.00
41945;BME280;63122;52.424;13.458;2023-02-23T03:59:16;100648.31;;;4.49;100.00
41945;BME280;63122;52.424;13.458;2023-02-23T04:01:27;100650.06;;;4.48;100.00
41945;BME280;63122;52.424;13.458;2023-02-23T04:03:37;100648.41;;;4.47;100.00
41945;BME280;63122;52.424;13.458;2023-02-23T04:05:48;100642.78;;;4.40;100.00
41945;BME280;63122;52.424;13.458;2023-02-23T04:07:58;100646.69;;;4.35;100.00
41945;BME280;63122;52.424;13.458;2023-02-23T04:10:09;100642.06;;;4.38;100.00
41945;BME280;63122;52.424;13.458;2023-02-23T04:12:23;100648.00;;;4.40;100.00
41945;BME280;63122;52.424;13.458;2023-02-23T04:14:37;100642.78;;;4.40;100.00
41945;BME280;63122;52.424;13.458;2023-02-23T04:16:31;100652.66;;;4.37;100.00
41945;BME280;63122;52.424;13.458;2023-02-23T04:18:26;100649.09;;;4.38;100.00
41945;BME280;63122;52.424;13.458;2023-02-23T04:20:23;100644.19;;;4.33;100.00
41945;BME280;63122;52.424;13.458;2023-02-23T04:22:19;100646.91;;;4.31;100.00
41945;BME280;63122;52.424;13.458;2023-02-23T04:24:14;100651.09;;;4.34;100.00
41945;BME280;63122;52.424;13.458;2023-02-23T04:26:09;100646.81;;;4.33;100.00
41945;BME280;63122;52.424;13.458;2023-02-23T04:28:07;100646.56;;;4.36;100.00
41945;BME280;63122;52.424;13.458;2023-02-23T04:30:03;100642.44;;;4.34;100.00
41945;BME280;63122;52.424;13.458;2023-02-23T04:31:58;100646.47;;;4.38;100.00
41945;BME280;63122;52.424;13.458;2023-02-23T04:33:54;100642.06;;;4.38;100.00
41945;BME280;63122;52.424;13.458;2023-02-23T04:35:51;100641.34;;;4.36;100.00
41945;BME280;63122;52.424;13.458;2023-02-23T04:37:46;100645.75;;;4.36;100.00
41945;BME280;63122;52.424;13.458;2023-02-23T04:39:41;100641.34;;;4.36;100.00
41945;BME280;63122;52.424;13.458;2023-02-23T04:41:41;100640.63;;;4.34;100.00
41945;BME280;63122;52.424;13.458;2023-02-23T04:43:38;100636.34;;;4.33;100.00
41945;BME280;63122;52.424;13.458;2023-02-23T04:45:34;100627.31;;;4.26;100.00
41945;BME280;63122;52.424;13.458;2023-02-23T04:47:29;100633.41;;;4.38;100.00
41945;BME280;63122;52.424;13.458;2023-02-23T04:49:24;100634.59;;;4.34;100.00
41945;BME280;63122;52.424;13.458;2023-02-23T04:51:19;100633.75;;;4.33;100.00
41945;BME280;63122;52.424;13.458;2023-02-23T04:53:15;100623.63;;;4.28;100.00
41945;BME280;63122;52.424;13.458;2023-02-23T04:55:16;100626.13;;;4.30;100.00
41945;BME280;63122;52.424;13.458;2023-02-23T04:57:12;100624.06;;;4.22;100.00
41945;BME280;63122;52.424;13.458;2023-02-23T04:59:10;100632.41;;;4.27;100.00
41945;BME280;63122;52.424;13.458;2023-02-23T05:01:07;100631.22;;;4.31;100.00
41945;BME280;63122;52.424;13.458;2023-02-23T05:03:02;100619.13;;;4.30;100.00
41945;BME280;63122;52.424;13.458;2023-02-23T05:04:57;100621.94;;;4.27;100.00
41945;BME280;63122;52.424;13.458;2023-02-23T05:06:53;100622.34;;;4.34;100.00
41945;BME280;63122;52.424;13.458;2023-02-23T05:08:48;100622.25;;;4.36;100.00
41945;BME280;63122;52.424;13.458;2023-02-23T05:10:45;100621.63;;;4.32;100.00
41945;BME280;63122;52.424;13.458;2023-02-23T05:12:40;100623.53;;;4.30;100.00
41945;BME280;63122;52.424;13.458;2023-02-23T05:14:37;100621.84;;;4.29;100.00
41945;BME280;63122;52.424;13.458;2023-02-23T05:16:33;100619.47;;;4.26;100.00
41945;BME280;63122;52.424;13.458;2023-02-23T05:18:28;100624.47;;;4.29;100.00
41945;BME280;63122;52.424;13.458;2023-02-23T05:20:23;100620.91;;;4.30;100.00
41945;BME280;63122;52.424;13.458;2023-02-23T05:22:19;100623.03;;;4.25;100.00
41945;BME280;63122;52.424;13.458;2023-02-23T05:24:14;100628.97;;;4.27;100.00
41945;BME280;63122;52.424;13.458;2023-02-23T05:26:11;100621.84;;;4.29;100.00
41945;BME280;63122;52.424;13.458;2023-02-23T05:28:06;100622.09;;;4.26;100.00
41945;BME280;63122;52.424;13.458;2023-02-23T05:30:06;100623.34;;;4.20;100.00
41945;BME280;63122;52.424;13.458;2023-02-23T05:32:03;100627.31;;;4.26;100.00
41945;BME280;63122;52.424;13.458;2023-02-23T05:33:58;100624.69;;;4.26;100.00
41945;BME280;63122;52.424;13.458;2023-02-23T05:35:53;100623.34;;;4.20;100.00
41945;BME280;63122;52.424;13.458;2023-02-23T05:37:49;100627.53;;;4.23;100.00
41945;BME280;63122;52.424;13.458;2023-02-23T05:39:45;100627.53;;;4.23;100.00
41945;BME280;63122;52.424;13.458;2023-02-23T05:41:40;100632.34;;;4.16;100.00
41945;BME280;63122;52.424;13.458;2023-02-23T05:43:36;100633.16;;;4.16;100.00
41945;BME280;63122;52.424;13.458;2023-02-23T05:45:35;100629.13;;;4.12;100.00
41945;BME280;63122;52.424;13.458;2023-02-23T05:47:33;100631.78;;;3.99;100.00
41945;BME280;63122;52.424;13.458;2023-02-23T05:49:30;100631.28;;;3.94;100.00
41945;BME280;63122;52.424;13.458;2023-02-23T05:51:26;100634.53;;;3.85;100.00
41945;BME280;63122;52.424;13.458;2023-02-23T05:53:21;100641.88;;;3.80;100.00
41945;BME280;63122;52.424;13.458;2023-02-23T05:55:16;100638.19;;;3.82;100.00
41945;BME280;63122;52.424;13.458;2023-02-23T05:57:12;100642.06;;;3.77;100.00
41945;BME280;63122;52.424;13.458;2023-02-23T05:59:07;100643.00;;;3.75;100.00
41945;BME280;63122;52.424;13.458;2023-02-23T06:01:05;100645.44;;;3.79;100.00
41945;BME280;63122;52.424;13.458;2023-02-23T06:03:00;100644.56;;;3.78;100.00
41945;BME280;63122;52.424;13.458;2023-02-23T06:04:55;100644.25;;;3.83;100.00
41945;BME280;63122;52.424;13.458;2023-02-23T06:06:50;100659.28;;;3.79;100.00
41945;BME280;63122;52.424;13.458;2023-02-23T06:08:48;100651.25;;;3.82;100.00
41945;BME280;63122;52.424;13.458;2023-02-23T06:10:43;100651.66;;;3.89;100.00
41945;BME280;63122;52.424;13.458;2023-02-23T06:12:39;100653.84;;;3.82;100.00
41945;BME280;63122;52.424;13.458;2023-02-23T06:14:34;100643.13;;;3.74;100.00
41945;BME280;63122;52.424;13.458;2023-02-23T06:16:31;100655.53;;;3.70;100.00
41945;BME280;63122;52.424;13.458;2023-02-23T06:18:27;100654.38;;;3.74;100.00
41945;BME280;63122;52.424;13.458;2023-02-23T06:20:22;100657.22;;;3.71;100.00
41945;BME280;63122;52.424;13.458;2023-02-23T06:22:17;100654.94;;;3.67;100.00
41945;BME280;63122;52.424;13.458;2023-02-23T06:24:13;100659.31;;;3.66;100.00
41945;BME280;63122;52.424;13.458;2023-02-23T06:26:08;100652.13;;;3.70;100.00
41945;BME280;63122;52.424;13.458;2023-02-23T06:28:05;100660.75;;;3.70;100.00
41945;BME280;63122;52.424;13.458;2023-02-23T06:30:01;100657.84;;;3.75;100.00
41945;BME280;63122;52.424;13.458;2023-02-23T06:31:59;100665.88;;;3.72;100.00
41945;BME280;63122;52.424;13.458;2023-02-23T06:33:54;100660.53;;;3.73;100.00
41945;BME280;63122;52.424;13.458;2023-02-23T06:35:50;100667.25;;;3.65;100.00
41945;BME280;63122;52.424;13.458;2023-02-23T06:37:45;100667.06;;;3.68;100.00
41945;BME280;63122;52.424;13.458;2023-02-23T06:39:41;100665.88;;;3.72;100.00
41945;BME280;63122;52.424;13.458;2023-02-23T06:41:36;100659.31;;;3.66;100.00
41945;BME280;63122;52.424;13.458;2023-02-23T06:43:31;100664.75;;;3.63;100.00
41945;BME280;63122;52.424;13.458;2023-02-23T06:45:26;100664.53;;;3.66;100.00
41945;BME280;63122;52.424;13.458;2023-02-23T06:47:25;100671.72;;;3.63;100.00
41945;BME280;63122;52.424;13.458;2023-02-23T06:49:21;100664.53;;;3.66;100.00
41945;BME280;63122;52.424;13.458;2023-02-23T06:51:16;100667.25;;;3.65;100.00
41945;BME280;63122;52.424;13.458;2023-02-23T06:53:11;100672.56;;;3.63;100.00
41945;BME280;63122;52.424;13.458;2023-02-23T06:55:08;100663.50;;;3.56;100.00
41945;BME280;63122;52.424;13.458;2023-02-23T06:57:04;100663.72;;;3.66;100.00
41945;BME280;63122;52.424;13.458;2023-02-23T06:58:59;100666.84;;;3.71;100.00
41945;BME280;63122;52.424;13.458;2023-02-23T07:00:54;100674.66;;;3.71;100.00
41945;BME280;63122;52.424;13.458;2023-02-23T07:02:53;100666.31;;;3.79;100.00
41945;BME280;63122;52.424;13.458;2023-02-23T07:04:48;100671.53;;;3.79;100.00
41945;BME280;63122;52.424;13.458;2023-02-23T07:06:44;100665.56;;;3.77;100.00
41945;BME280;63122;52.424;13.458;2023-02-23T07:08:39;100664.66;;;3.65;100.00
41945;BME280;63122;52.424;13.458;2023-02-23T07:10:34;100673.09;;;3.68;100.00
41945;BME280;63122;52.424;13.458;2023-02-23T07:12:30;100674.31;;;3.75;100.00
41945;BME280;63122;52.424;13.458;2023-02-23T07:14:25;100673.19;;;3.80;100.00
41945;BME280;63122;52.424;13.458;2023-02-23T07:16:20;100669.63;;;3.81;100.00
41945;BME280;63122;52.424;13.458;2023-02-23T07:18:29;100675.06;;;3.78;100.00
41945;BME280;63122;52.424;13.458;2023-02-23T07:20:24;100667.03;;;3.81;100.00
41945;BME280;63122;52.424;13.458;2023-02-23T07:22:22;100671.09;;;3.72;100.00
41945;BME280;63122;52.424;13.458;2023-02-23T07:24:21;100667.16;;;3.66;100.00
41945;BME280;63122;52.424;13.458;2023-02-23T07:26:19;100674.88;;;3.68;100.00
41945;BME280;63122;52.424;13.458;2023-02-23T07:28:14;100664.81;;;3.74;100.00
41945;BME280;63122;52.424;13.458;2023-02-23T07:30:14;100665.97;;;3.70;100.00
41945;BME280;63122;52.424;13.458;2023-02-23T07:32:10;100670.25;;;3.71;100.00
41945;BME280;63122;52.424;13.458;2023-02-23T07:34:09;100668.50;;;3.72;100.00
41945;BME280;63122;52.424;13.458;2023-02-23T07:36:05;100669.53;;;3.69;100.00
41945;BME280;63122;52.424;13.458;2023-02-23T07:38:01;100667.25;;;3.65;100.00
41945;BME280;63122;52.424;13.458;2023-02-23T07:39:56;100662.03;;;3.65;100.00
41945;BME280;63122;52.424;13.458;2023-02-23T07:41:53;100668.38;;;3.73;100.00
41945;BME280;63122;52.424;13.458;2023-02-23T07:43:48;100665.44;;;3.78;100.00
41945;BME280;63122;52.424;13.458;2023-02-23T07:45:43;100663.69;;;3.79;100.00
41945;BME280;63122;52.424;13.458;2023-02-23T07:47:38;100661.91;;;3.79;100.00
41945;BME280;63122;52.424;13.458;2023-02-23T07:49:36;100665.22;;;3.81;100.00
41945;BME280;63122;52.424;13.458;2023-02-23T07:51:31;100665.53;;;3.89;100.00
41945;BME280;63122;52.424;13.458;2023-02-23T07:53:26;100669.50;;;3.82;100.00
41945;BME280;63122;52.424;13.458;2023-02-23T07:55:22;100659.78;;;3.84;100.00
41945;BME280;63122;52.424;13.458;2023-02-23T07:57:18;100659.34;;;3.91;100.00
41945;BME280;63122;52.424;13.458;2023-02-23T07:59:15;100661.81;;;3.81;100.00
41945;BME280;63122;52.424;13.458;2023-02-23T08:01:11;100658.34;;;3.80;100.00
41945;BME280;63122;52.424;13.458;2023-02-23T08:03:07;100653.97;;;3.81;100.00
41945;BME280;63122;52.424;13.458;2023-02-23T08:05:05;100654.47;;;3.86;100.00
41945;BME280;63122;52.424;13.458;2023-02-23T08:07:00;100652.78;;;3.98;100.00
41945;BME280;63122;52.424;13.458;2023-02-23T08:08:57;100651.94;;;3.97;100.00
41945;BME280;63122;52.424;13.458;2023-02-23T08:10:58;100655.03;;;4.02;100.00
41945;BME280;63122;52.424;13.458;2023-02-23T08:12:53;100660.81;;;4.08;100.00
41945;BME280;63122;52.424;13.458;2023-02-23T08:14:48;100654.09;;;4.03;100.00
41945;BME280;63122;52.424;13.458;2023-02-23T08:16:44;100660.81;;;4.08;100.00
41945;BME280;63122;52.424;13.458;2023-02-23T08:18:42;100660.84;;;4.19;100.00
41945;BME280;63122;52.424;13.458;2023-02-23T08:20:40;100658.75;;;4.24;100.00
41945;BME280;63122;52.424;13.458;2023-02-23T08:22:35;100661.34;;;4.24;100.00
41945;BME280;63122;52.424;13.458;2023-02-23T08:24:40;100663.75;;;4.27;100.00
41945;BME280;63122;52.424;13.458;2023-02-23T08:26:37;100661.34;;;4.24;100.00
41945;BME280;63122;52.424;13.458;2023-02-23T08:28:32;100658.59;;;4.39;100.00
41945;BME280;63122;52.424;13.458;2023-02-23T08:30:27;100662.03;;;4.39;100.00
41945;BME280;63122;52.424;13.458;2023-02-23T08:32:23;100662.47;;;4.33;100.00
41945;BME280;63122;52.424;13.458;2023-02-23T08:34:18;100662.97;;;4.38;100.00
41945;BME280;63122;52.424;13.458;2023-02-23T08:36:16;100664.84;;;4.36;100.00
41945;BME280;63122;52.424;13.458;2023-02-23T08:38:12;100664.13;;;4.34;100.00
41945;BME280;63122;52.424;13.458;2023-02-23T08:40:09;100657.03;;;4.36;100.00
41945;BME280;63122;52.424;13.458;2023-02-23T08:42:06;100659.63;;;4.36;100.00
41945;BME280;63122;52.424;13.458;2023-02-23T08:44:03;100658.81;;;4.36;100.00
41945;BME280;63122;52.424;13.458;2023-02-23T08:45:58;100665.09;;;4.33;100.00
41945;BME280;63122;52.424;13.458;2023-02-23T08:47:54;100660.09;;;4.30;100.00
41945;BME280;63122;52.424;13.458;2023-02-23T08:49:52;100659.25;;;4.29;100.00
41945;BME280;63122;52.424;13.458;2023-02-23T08:51:50;100654.13;;;4.28;100.00
41945;BME280;63122;52.424;13.458;2023-02-23T08:53:45;100658.81;;;4.36;100.00
41945;BME280;63122;52.424;13.458;2023-02-23T08:55:41;100658.09;;;4.34;100.00
41945;BME280;63122;52.424;13.458;2023-02-23T08:57:36;100657.66;;;4.40;100.00
41945;BME280;63122;52.424;13.458;2023-02-23T08:59:32;100655.97;;;4.39;100.00
41945;BME280;63122;52.424;13.458;2023-02-23T09:01:27;100657.41;;;4.43;100.00
41945;BME280;63122;52.424;13.458;2023-02-23T09:03:23;100663.59;;;4.42;100.00
41945;BME280;63122;52.424;13.458;2023-02-23T09:05:19;100665.19;;;4.31;100.00
41945;BME280;63122;52.424;13.458;2023-02-23T09:07:17;100662.88;;;4.40;100.00
41945;BME280;63122;52.424;13.458;2023-02-23T09:09:14;100671.31;;;4.43;100.00
41945;BME280;63122;52.424;13.458;2023-02-23T09:11:10;100666.06;;;4.43;100.00
41945;BME280;63122;52.424;13.458;2023-02-23T09:13:05;100667.41;;;4.49;100.00
41945;BME280;63122;52.424;13.458;2023-02-23T09:15:00;100656.41;;;4.57;100.00
41945;BME280;63122;52.424;13.458;2023-02-23T09:16:55;100657.75;;;4.63;100.00
41945;BME280;63122;52.424;13.458;2023-02-23T09:18:51;100663.84;;;4.50;100.00
41945;BME280;63122;52.424;13.458;2023-02-23T09:20:46;100664.34;;;4.55;100.00
41945;BME280;63122;52.424;13.458;2023-02-23T09:22:44;100664.63;;;4.64;100.00
41945;BME280;63122;52.424;13.458;2023-02-23T09:24:41;100660.16;;;4.77;100.00
41945;BME280;63122;52.424;13.458;2023-02-23T09:26:37;100666.72;;;4.83;100.00
41945;BME280;63122;52.424;13.458;2023-02-23T09:28:36;100663.75;;;4.87;100.00
41945;BME280;63122;52.424;13.458;2023-02-23T09:30:32;100666.81;;;4.81;100.00
41945;BME280;63122;52.424;13.458;2023-02-23T09:32:27;100670.38;;;4.80;100.00
41945;BME280;63122;52.424;13.458;2023-02-23T09:34:23;100672.53;;;4.86;100.00
41945;BME280;63122;52.424;13.458;2023-02-23T09:36:23;100673.00;;;4.80;100.00
41945;BME280;63122;52.424;13.458;2023-02-23T09:38:21;100667.91;;;4.90;100.00
41945;BME280;63122;52.424;13.458;2023-02-23T09:40:20;100665.84;;;5.07;100.00
41945;BME280;63122;52.424;13.458;2023-02-23T09:42:27;100670.69;;;5.11;100.00
41945;BME280;63122;52.424;13.458;2023-02-23T09:44:32;100661.66;;;5.15;100.00
41945;BME280;63122;52.424;13.458;2023-02-23T09:46:35;100668.69;;;5.26;100.00
41945;BME280;63122;52.424;13.458;2023-02-23T09:48:35;100672.78;;;5.30;100.00
41945;BME280;63122;52.424;13.458;2023-02-23T09:50:33;100667.06;;;5.37;100.00
41945;BME280;63122;52.424;13.458;2023-02-23T09:52:37;100668.88;;;5.47;100.00
41945;BME280;63122;52.424;13.458;2023-02-23T09:54:36;100668.03;;;5.36;100.00
41945;BME280;63122;52.424;13.458;2023-02-23T09:56:35;100657.56;;;5.47;100.00
41945;BME280;63122;52.424;13.458;2023-02-23T09:58:33;100669.47;;;5.62;100.00
41945;BME280;63122;52.424;13.458;2023-02-23T10:00:30;100666.69;;;5.87;100.00
41945;BME280;63122;52.424;13.458;2023-02-23T10:02:32;100667.91;;;6.05;100.00
41945;BME280;63122;52.424;13.458;2023-02-23T10:04:34;100659.91;;;6.18;100.00
41945;BME280;63122;52.424;13.458;2023-02-23T10:06:31;100659.91;;;6.18;100.00
41945;BME280;63122;52.424;13.458;2023-02-23T10:08:42;100662.13;;;6.34;100.00
41945;BME280;63122;52.424;13.458;2023-02-23T10:10:46;100663.88;;;6.34;100.00
41945;BME280;63122;52.424;13.458;2023-02-23T10:12:48;100657.50;;;6.27;100.00
41945;BME280;63122;52.424;13.458;2023-02-23T10:14:57;100661.28;;;6.67;100.00
41945;BME280;63122;52.424;13.458;2023-02-23T10:17:07;100659.38;;;6.90;100.00
41945;BME280;63122;52.424;13.458;2023-02-23T10:19:11;100658.66;;;6.88;100.00
41945;BME280;63122;52.424;13.458;2023-02-23T10:21:15;100655.22;;;7.09;100.00
41945;BME280;63122;52.424;13.458;2023-02-23T10:23:15;100649.88;;;7.41;100.00
41945;BME280;63122;52.424;13.458;2023-02-23T10:25:13;100647.00;;;7.23;100.00